createdAt,value
2019-05-18T00:00:33.015Z,99.99
2019-05-18T00:01:33.009Z,99.99
2019-05-18T00:02:32.985Z,99.99
2019-05-18T00:03:32.976Z,99.99
2019-05-18T00:04:32.976Z,99.99
2019-05-18T00:05:32.929Z,99.99
2019-05-18T00:06:32.910Z,99.99
2019-05-18T00:07:32.894Z,99.99
2019-05-18T00:08:32.884Z,99.99
2019-05-18T00:09:32.862Z,99.99
2019-05-18T00:10:32.853Z,99.99
2019-05-18T00:11:32.828Z,99.99
2019-05-18T00:12:32.808Z,99.99
2019-05-18T00:13:32.793Z,99.99
2019-05-18T00:14:32.776Z,99.99
2019-05-18T00:15:32.762Z,99.99
2019-05-18T00:16:32.744Z,99.99
2019-05-18T00:17:32.727Z,99.99
2019-05-18T00:18:32.703Z,99.99
2019-05-18T00:19:32.687Z,99.99
2019-05-18T00:20:32.668Z,99.99
2019-05-18T00:21:32.658Z,99.99
2019-05-18T00:22:32.640Z,99.99
2019-05-18T00:23:32.617Z,99.99
2019-05-18T00:24:32.601Z,99.99
2019-05-18T00:25:32.585Z,99.99
2019-05-18T00:26:32.568Z,99.99
2019-05-18T00:27:32.548Z,99.99
2019-05-18T00:28:32.544Z,99.99
2019-05-18T00:29:32.515Z,99.99
2019-05-18T00:30:32.498Z,99.99
2019-05-18T00:31:32.487Z,99.99
2019-05-18T00:32:32.459Z,99.99
2019-05-18T00:33:32.459Z,99.99
2019-05-18T00:34:32.429Z,99.99
2019-05-18T00:35:32.418Z,99.99
2019-05-18T00:36:32.390Z,99.99
2019-05-18T00:37:32.375Z,99.99
2019-05-18T00:38:32.357Z,99.99
2019-05-18T00:39:32.396Z,99.99
2019-05-18T00:40:32.322Z,99.99
2019-05-18T00:41:32.305Z,99.99
2019-05-18T00:42:32.286Z,99.99
2019-05-18T00:43:32.270Z,99.99
2019-05-18T00:44:32.252Z,99.99
2019-05-18T00:45:32.234Z,99.99
2019-05-18T00:46:32.218Z,99.99
2019-05-18T00:47:40.985Z,99.99
2019-05-18T00:48:32.181Z,99.99
2019-05-18T00:49:32.169Z,99.99
2019-05-18T00:50:32.145Z,99.99
2019-05-18T00:51:32.128Z,99.99
2019-05-18T00:52:32.114Z,99.99
2019-05-18T00:53:32.094Z,99.99
2019-05-18T00:54:32.076Z,99.99
2019-05-18T00:55:32.063Z,99.99
2019-05-18T00:56:32.051Z,99.99
2019-05-18T00:57:32.024Z,99.99
2019-05-18T00:58:32.008Z,99.99
2019-05-18T00:59:31.991Z,99.99
2019-05-18T01:00:31.980Z,99.99
2019-05-18T01:01:31.960Z,99.99
2019-05-18T01:02:31.936Z,99.99
2019-05-18T01:03:31.920Z,99.99
2019-05-18T01:04:31.900Z,99.99
2019-05-18T01:05:31.897Z,99.99
2019-05-18T01:06:31.871Z,99.99
2019-05-18T01:07:31.853Z,99.99
2019-05-18T01:08:31.833Z,99.99
2019-05-18T01:09:31.819Z,99.99
2019-05-18T01:10:31.797Z,99.99
2019-05-18T01:11:31.783Z,99.99
2019-05-18T01:12:31.766Z,99.99
2019-05-18T01:13:31.744Z,99.99
2019-05-18T01:14:31.726Z,99.99
2019-05-18T01:15:31.715Z,99.99
2019-05-18T01:16:31.694Z,99.99
2019-05-18T01:17:31.670Z,99.99
2019-05-18T01:18:31.662Z,99.99
2019-05-18T01:19:31.637Z,99.99
2019-05-18T01:20:31.618Z,99.99
2019-05-18T01:21:31.640Z,99.99
2019-05-18T01:22:31.580Z,99.99
2019-05-18T01:23:31.564Z,99.99
2019-05-18T01:24:31.549Z,99.99
2019-05-18T01:25:31.535Z,99.99
2019-05-18T01:26:31.518Z,99.99
2019-05-18T01:27:31.494Z,99.99
2019-05-18T01:28:31.479Z,99.99
2019-05-18T01:29:31.462Z,99.99
2019-05-18T01:30:31.442Z,99.99
2019-05-18T01:31:31.424Z,99.99
2019-05-18T01:32:31.409Z,99.99
2019-05-18T01:33:31.390Z,99.99
2019-05-18T01:34:31.372Z,99.99
2019-05-18T01:35:31.354Z,99.99
2019-05-18T01:36:31.336Z,99.99
2019-05-18T01:37:31.326Z,99.99
2019-05-18T01:38:31.303Z,99.99
2019-05-18T01:39:31.280Z,99.99
2019-05-18T01:40:31.265Z,99.99
2019-05-18T01:41:31.248Z,99.99
2019-05-18T01:42:31.230Z,99.99
2019-05-18T01:43:31.211Z,99.99
2019-05-18T01:44:31.193Z,99.99
2019-05-18T01:45:31.173Z,99.99
2019-05-18T01:46:31.159Z,99.99
2019-05-18T01:47:31.138Z,99.99
2019-05-18T01:48:31.122Z,99.99
2019-05-18T01:49:31.152Z,99.99
2019-05-18T01:50:31.087Z,99.99
2019-05-18T01:51:31.067Z,99.99
2019-05-18T01:52:31.050Z,99.99
2019-05-18T01:53:31.042Z,99.99
2019-05-18T01:54:31.013Z,99.99
2019-05-18T01:55:30.998Z,99.99
2019-05-18T01:56:30.976Z,99.99
2019-05-18T01:57:30.959Z,99.99
2019-05-18T01:58:30.940Z,99.99
2019-05-18T01:59:30.924Z,99.99
2019-05-18T02:00:30.908Z,99.99
2019-05-18T02:01:30.894Z,99.99
2019-05-18T02:02:30.871Z,99.99
2019-05-18T02:03:30.855Z,99.99
2019-05-18T02:04:30.835Z,99.99
2019-05-18T02:05:30.818Z,99.99
2019-05-18T02:06:30.801Z,99.99
2019-05-18T02:07:30.782Z,99.99
2019-05-18T02:08:30.769Z,99.99
2019-05-18T02:09:30.746Z,99.99
2019-05-18T02:10:30.728Z,99.99
2019-05-18T02:11:30.714Z,99.99
2019-05-18T02:12:30.689Z,99.99
2019-05-18T02:13:30.677Z,99.99
2019-05-18T02:14:30.656Z,99.99
2019-05-18T02:15:30.637Z,99.99
2019-05-18T02:16:30.628Z,99.99
2019-05-18T02:17:30.606Z,99.99
2019-05-18T02:18:30.588Z,99.99
2019-05-18T02:19:30.566Z,99.99
2019-05-18T02:20:30.550Z,99.99
2019-05-18T02:21:30.529Z,99.99
2019-05-18T02:22:30.514Z,99.99
2019-05-18T02:23:30.493Z,99.99
2019-05-18T02:24:30.474Z,99.99
2019-05-18T02:25:30.458Z,99.99
2019-05-18T02:26:30.436Z,99.99
2019-05-18T02:27:30.434Z,99.99
2019-05-18T02:28:30.403Z,99.99
2019-05-18T02:29:30.387Z,99.99
2019-05-18T02:30:30.365Z,99.99
2019-05-18T02:31:30.352Z,99.99
2019-05-18T02:32:30.329Z,99.99
2019-05-18T02:33:30.312Z,99.99
2019-05-18T02:34:30.304Z,99.99
2019-05-18T02:35:30.277Z,99.99
2019-05-18T02:36:30.260Z,99.99
2019-05-18T02:37:30.244Z,99.99
2019-05-18T02:38:30.222Z,99.99
2019-05-18T02:39:30.202Z,99.99
2019-05-18T02:40:30.189Z,99.99
2019-05-18T02:41:30.169Z,99.99
2019-05-18T02:42:30.918Z,99.99
2019-05-18T02:43:30.218Z,99.99
2019-05-18T02:44:30.113Z,99.99
2019-05-18T02:45:30.094Z,99.99
2019-05-18T02:46:30.081Z,99.99
2019-05-18T02:47:30.063Z,99.99
2019-05-18T02:48:47.142Z,99.99
2019-05-18T02:49:30.025Z,99.99
2019-05-18T02:50:30.004Z,99.99
2019-05-18T02:51:29.986Z,99.99
2019-05-18T02:52:29.970Z,99.99
2019-05-18T02:53:29.950Z,99.99
2019-05-18T02:54:29.931Z,99.99
2019-05-18T02:55:29.912Z,99.99
2019-05-18T02:56:29.892Z,99.99
2019-05-18T02:57:29.876Z,99.99
2019-05-18T02:58:29.867Z,99.99
2019-05-18T02:59:29.838Z,99.99
2019-05-18T03:00:29.820Z,99.99
2019-05-18T03:01:29.811Z,99.99
2019-05-18T03:02:29.785Z,99.99
2019-05-18T03:03:29.766Z,99.99
2019-05-18T03:04:29.748Z,99.99
2019-05-18T03:05:29.742Z,99.99
2019-05-18T03:06:29.711Z,99.99
2019-05-18T03:07:29.693Z,99.99
2019-05-18T03:08:29.675Z,99.99
2019-05-18T03:09:29.667Z,99.99
2019-05-18T03:10:29.640Z,99.99
2019-05-18T03:11:29.621Z,99.99
2019-05-18T03:12:29.604Z,99.99
2019-05-18T03:13:29.593Z,99.99
2019-05-18T03:14:29.572Z,99.99
2019-05-18T03:15:29.549Z,99.99
2019-05-18T03:16:29.536Z,99.99
2019-05-18T03:17:29.521Z,99.99
2019-05-18T03:18:29.499Z,99.99
2019-05-18T03:19:29.477Z,99.99
2019-05-18T03:20:29.461Z,99.99
2019-05-18T03:21:29.436Z,99.99
2019-05-18T03:22:29.424Z,99.99
2019-05-18T03:23:29.422Z,99.99
2019-05-18T03:24:29.386Z,99.99
2019-05-18T03:25:29.375Z,99.99
2019-05-18T03:26:29.349Z,99.99
2019-05-18T03:27:29.328Z,99.99
2019-05-18T03:28:29.319Z,99.99
2019-05-18T03:29:29.290Z,99.99
2019-05-18T03:30:29.289Z,99.99
2019-05-18T03:31:29.268Z,99.99
2019-05-18T03:32:29.251Z,99.99
2019-05-18T03:33:30.393Z,99.99
2019-05-18T03:34:29.198Z,99.99
2019-05-18T03:35:29.194Z,99.99
2019-05-18T03:36:29.162Z,99.99
2019-05-18T03:37:29.146Z,99.99
2019-05-18T03:38:29.127Z,99.99
2019-05-18T03:39:29.107Z,99.99
2019-05-18T03:40:29.089Z,99.99
2019-05-18T03:41:29.085Z,99.99
2019-05-18T03:42:29.051Z,99.99
2019-05-18T03:43:29.033Z,99.99
2019-05-18T03:44:29.016Z,99.99
2019-05-18T03:45:28.999Z,99.99
2019-05-18T03:46:28.982Z,99.99
2019-05-18T03:47:28.966Z,99.99
2019-05-18T03:48:28.939Z,99.99
2019-05-18T03:49:28.928Z,99.99
2019-05-18T03:50:28.905Z,99.99
2019-05-18T03:51:28.894Z,99.99
2019-05-18T03:52:28.867Z,99.99
2019-05-18T03:53:28.849Z,99.99
2019-05-18T03:54:28.861Z,99.99
2019-05-18T03:55:28.821Z,99.99
2019-05-18T03:56:28.797Z,99.99
2019-05-18T03:57:28.774Z,99.99
2019-05-18T03:58:28.760Z,99.99
2019-05-18T03:59:28.809Z,99.99
2019-05-18T04:00:28.728Z,99.99
2019-05-18T04:01:28.700Z,99.99
2019-05-18T04:02:28.687Z,99.99
2019-05-18T04:03:28.665Z,99.99
2019-05-18T04:04:28.649Z,99.99
2019-05-18T04:05:28.626Z,99.99
2019-05-18T04:06:28.689Z,99.99
2019-05-18T04:07:28.590Z,99.99
2019-05-18T04:08:28.572Z,99.99
2019-05-18T04:09:28.553Z,99.99
2019-05-18T04:10:28.542Z,99.99
2019-05-18T04:11:28.525Z,99.99
2019-05-18T04:12:28.499Z,99.99
2019-05-18T04:13:28.484Z,99.99
2019-05-18T04:14:28.463Z,99.99
2019-05-18T04:15:28.447Z,99.99
2019-05-18T04:16:28.425Z,99.99
2019-05-18T04:17:28.408Z,99.99
2019-05-18T04:18:28.399Z,99.99
2019-05-18T04:19:44.875Z,99.99
2019-05-18T04:20:28.356Z,99.99
2019-05-18T04:21:28.338Z,99.99
2019-05-18T04:22:28.315Z,99.99
2019-05-18T04:23:28.298Z,99.99
2019-05-18T04:24:28.293Z,99.99
2019-05-18T04:25:28.269Z,99.99
2019-05-18T04:26:28.245Z,99.99
2019-05-18T04:27:28.224Z,99.99
2019-05-18T04:28:28.207Z,99.99
2019-05-18T04:29:28.194Z,99.99
2019-05-18T04:30:28.169Z,99.99
2019-05-18T04:31:31.977Z,99.99
2019-05-18T04:32:28.141Z,99.99
2019-05-18T04:33:28.123Z,99.99
2019-05-18T04:34:28.095Z,99.99
2019-05-18T04:35:28.079Z,99.99
2019-05-18T04:36:28.170Z,99.99
2019-05-18T04:37:28.040Z,99.99
2019-05-18T04:38:28.029Z,99.99
2019-05-18T04:39:28.011Z,99.99
2019-05-18T04:40:27.988Z,99.99
2019-05-18T04:41:27.970Z,99.99
2019-05-18T04:42:27.954Z,99.99
2019-05-18T04:43:27.936Z,99.99
2019-05-18T04:44:27.925Z,99.99
2019-05-18T04:45:27.975Z,99.99
2019-05-18T04:46:27.879Z,99.99
2019-05-18T04:47:27.865Z,99.99
2019-05-18T04:48:27.842Z,99.99
2019-05-18T04:49:27.822Z,99.99
2019-05-18T04:50:27.811Z,99.99
2019-05-18T04:51:27.792Z,99.99
2019-05-18T04:52:27.785Z,99.99
2019-05-18T04:53:27.754Z,99.99
2019-05-18T04:54:27.731Z,99.99
2019-05-18T04:55:27.715Z,99.99
2019-05-18T04:56:27.697Z,99.99
2019-05-18T04:57:27.678Z,99.99
2019-05-18T04:58:27.662Z,99.99
2019-05-18T04:59:27.646Z,99.99
2019-05-18T05:00:27.638Z,99.99
2019-05-18T05:01:27.617Z,99.99
2019-05-18T05:02:27.594Z,99.99
2019-05-18T05:03:27.573Z,99.99
2019-05-18T05:04:27.557Z,99.99
2019-05-18T05:05:27.539Z,99.99
2019-05-18T05:06:27.521Z,99.99
2019-05-18T05:07:27.515Z,99.99
2019-05-18T05:08:27.485Z,99.99
2019-05-18T05:09:27.465Z,99.99
2019-05-18T05:10:27.454Z,99.99
2019-05-18T05:11:27.431Z,99.99
2019-05-18T05:12:27.412Z,99.99
2019-05-18T05:13:27.403Z,99.99
2019-05-18T05:14:27.383Z,99.99
2019-05-18T05:15:27.359Z,99.99
2019-05-18T05:16:27.340Z,99.99
2019-05-18T05:17:27.333Z,99.99
2019-05-18T05:18:27.308Z,99.99
2019-05-18T05:19:27.291Z,99.99
2019-05-18T05:20:27.279Z,99.99
2019-05-18T05:21:27.269Z,99.99
2019-05-18T05:22:27.241Z,99.99
2019-05-18T05:23:27.221Z,99.99
2019-05-18T05:24:27.206Z,99.99
2019-05-18T05:25:27.186Z,99.99
2019-05-18T05:26:27.169Z,99.99
2019-05-18T05:27:27.150Z,99.99
2019-05-18T05:28:27.135Z,99.99
2019-05-18T05:29:27.129Z,99.99
2019-05-18T05:30:27.105Z,99.99
2019-05-18T05:31:27.088Z,99.99
2019-05-18T05:32:27.062Z,99.99
2019-05-18T05:33:27.048Z,99.99
2019-05-18T05:34:27.037Z,99.99
2019-05-18T05:35:27.011Z,99.99
2019-05-18T05:36:26.996Z,99.99
2019-05-18T05:37:26.976Z,99.99
2019-05-18T05:38:26.957Z,99.99
2019-05-18T05:39:26.947Z,99.99
2019-05-18T05:40:26.921Z,99.99
2019-05-18T05:41:26.905Z,99.99
2019-05-18T05:42:26.890Z,99.99
2019-05-18T05:43:26.869Z,99.99
2019-05-18T05:44:26.862Z,99.99
2019-05-18T05:45:26.834Z,99.99
2019-05-18T05:46:26.817Z,99.99
2019-05-18T05:47:26.801Z,99.99
2019-05-18T05:48:26.782Z,99.99
2019-05-18T05:49:26.765Z,99.99
2019-05-18T05:50:35.520Z,99.99
2019-05-18T05:51:26.739Z,99.99
2019-05-18T05:52:26.712Z,99.99
2019-05-18T05:53:26.696Z,99.99
2019-05-18T05:54:26.678Z,99.99
2019-05-18T05:55:26.662Z,99.99
2019-05-18T05:56:26.643Z,99.99
2019-05-18T05:57:26.626Z,99.99
2019-05-18T05:58:26.610Z,99.99
2019-05-18T05:59:26.595Z,99.99
2019-05-18T06:00:26.576Z,99.99
2019-05-18T06:01:26.558Z,99.99
2019-05-18T06:02:26.542Z,99.99
2019-05-18T06:03:26.523Z,99.99
2019-05-18T06:04:26.510Z,99.99
2019-05-18T06:05:26.491Z,99.99
2019-05-18T06:06:26.472Z,99.99
2019-05-18T06:07:26.456Z,99.99
2019-05-18T06:08:26.438Z,99.99
2019-05-18T06:09:26.422Z,99.99
2019-05-18T06:10:26.404Z,99.99
2019-05-18T06:11:26.385Z,99.99
2019-05-18T06:12:26.380Z,99.99
2019-05-18T06:13:26.352Z,99.99
2019-05-18T06:14:26.338Z,99.99
2019-05-18T06:15:26.319Z,99.99
2019-05-18T06:16:26.302Z,99.99
2019-05-18T06:17:26.286Z,99.99
2019-05-18T06:18:26.268Z,99.99
2019-05-18T06:19:26.263Z,99.99
2019-05-18T06:20:26.237Z,99.99
2019-05-18T06:21:26.221Z,99.99
2019-05-18T06:22:26.207Z,99.99
2019-05-18T06:23:26.188Z,99.99
2019-05-18T06:24:26.172Z,99.99
2019-05-18T06:25:26.152Z,99.99
2019-05-18T06:26:26.154Z,99.99
2019-05-18T06:27:26.119Z,99.99
2019-05-18T06:28:26.113Z,99.99
2019-05-18T06:29:26.087Z,99.99
2019-05-18T06:30:26.082Z,99.99
2019-05-18T06:31:26.063Z,99.99
2019-05-18T06:32:26.038Z,99.99
2019-05-18T06:33:26.028Z,99.99
2019-05-18T06:34:26.007Z,99.99
2019-05-18T06:35:25.998Z,99.99
2019-05-18T06:36:25.975Z,99.99
2019-05-18T06:37:25.959Z,99.99
2019-05-18T06:38:25.947Z,99.99
2019-05-18T06:39:25.936Z,99.99
2019-05-18T06:40:25.912Z,99.99
2019-05-18T06:41:25.899Z,99.99
2019-05-18T06:42:25.880Z,99.99
2019-05-18T06:43:25.877Z,99.99
2019-05-18T06:44:25.848Z,99.99
2019-05-18T06:45:25.841Z,99.99
2019-05-18T06:46:25.820Z,99.99
2019-05-18T06:47:25.807Z,99.99
2019-05-18T06:48:25.804Z,99.99
2019-05-18T06:49:25.778Z,99.99
2019-05-18T06:50:25.766Z,99.99
2019-05-18T06:51:25.740Z,99.99
2019-05-18T06:52:25.737Z,99.99
2019-05-18T06:53:25.716Z,99.96
2019-05-18T06:54:25.708Z,99.67
2019-05-18T06:55:25.680Z,98.76
2019-05-18T06:56:25.670Z,97.85
2019-05-18T06:57:25.653Z,98.43
2019-05-18T06:58:25.634Z,98.71
2019-05-18T06:59:25.628Z,98.57
2019-05-18T07:00:25.611Z,98.96
2019-05-18T07:01:25.592Z,98.76
2019-05-18T07:02:25.575Z,96.66
2019-05-18T07:03:25.582Z,95.79
2019-05-18T07:04:25.543Z,95.98
2019-05-18T07:05:25.528Z,95.89
2019-05-18T07:06:25.525Z,96.84
2019-05-18T07:07:25.505Z,97.14
2019-05-18T07:08:25.486Z,97.23
2019-05-18T07:09:25.568Z,96.37
2019-05-18T07:10:25.454Z,95.51
2019-05-18T07:11:25.442Z,96.61
2019-05-18T07:12:25.428Z,95.26
2019-05-18T07:13:25.454Z,94.69
2019-05-18T07:14:26.227Z,94.74
2019-05-18T07:15:25.388Z,94.79
2019-05-18T07:16:25.369Z,93.49
2019-05-18T07:17:25.355Z,93.63
2019-05-18T07:18:30.739Z,94.35
2019-05-18T07:19:25.418Z,94.17
2019-05-18T07:20:25.338Z,93.88
2019-05-18T07:21:25.298Z,94.17
2019-05-18T07:22:25.292Z,94.93
2019-05-18T07:23:25.270Z,94.31
2019-05-18T07:24:25.263Z,94.79
2019-05-18T07:25:25.244Z,95.07
2019-05-18T07:26:25.228Z,93.15
2019-05-18T07:27:25.216Z,91.81
2019-05-18T07:28:25.199Z,91.62
2019-05-18T07:29:25.187Z,91.81
2019-05-18T07:30:25.173Z,91.86
2019-05-18T07:31:31.140Z,92.14
2019-05-18T07:32:25.149Z,90.52
2019-05-18T07:33:58.525Z,90.42
2019-05-18T07:34:26.672Z,90.03
2019-05-18T07:35:25.106Z,88.69
2019-05-18T07:36:25.099Z,88.98
2019-05-18T07:37:25.138Z,88.69
2019-05-18T07:38:26.151Z,89.17
2019-05-18T07:39:25.055Z,89.22
2019-05-18T07:40:25.045Z,89.02
2019-05-18T07:41:25.032Z,88.35
2019-05-18T07:42:25.012Z,88.45
2019-05-18T07:43:24.998Z,88.68
2019-05-18T07:44:24.987Z,88.20
2019-05-18T07:45:24.977Z,87.43
2019-05-18T07:46:24.961Z,87.48
2019-05-18T07:47:24.945Z,87.86
2019-05-18T07:48:24.932Z,86.90
2019-05-18T07:49:24.919Z,87.71
2019-05-18T07:50:24.910Z,87.62
2019-05-18T07:51:36.244Z,85.60
2019-05-18T07:52:24.884Z,85.11
2019-05-18T07:53:24.872Z,83.29
2019-05-18T07:54:24.858Z,83.48
2019-05-18T07:55:24.855Z,83.09
2019-05-18T07:56:24.837Z,83.19
2019-05-18T07:57:24.832Z,83.04
2019-05-18T07:58:24.814Z,81.56
2019-05-18T07:59:24.799Z,81.65
2019-05-18T08:00:24.786Z,81.75
2019-05-18T08:01:24.774Z,82.23
2019-05-18T08:02:24.770Z,82.71
2019-05-18T08:03:24.754Z,83.15
2019-05-18T08:04:24.747Z,82.85
2019-05-18T08:05:24.731Z,82.37
2019-05-18T08:06:24.724Z,82.12
2019-05-18T08:07:24.719Z,83.03
2019-05-18T08:08:24.696Z,83.16
2019-05-18T08:09:24.683Z,78.34
2019-05-18T08:10:24.687Z,76.71
2019-05-18T08:11:24.661Z,76.34
2019-05-18T08:12:24.651Z,76.82
2019-05-18T08:13:24.639Z,78.56
2019-05-18T08:14:24.629Z,78.85
2019-05-18T08:15:24.625Z,78.98
2019-05-18T08:16:24.610Z,78.21
2019-05-18T08:17:24.603Z,77.92
2019-05-18T08:18:24.603Z,77.15
2019-05-18T08:19:24.587Z,76.61
2019-05-18T08:20:24.580Z,76.32
2019-05-18T08:21:24.572Z,74.49
2019-05-18T08:22:24.562Z,74.78
2019-05-18T08:23:24.556Z,74.43
2019-05-18T08:24:24.552Z,74.43
2019-05-18T08:25:24.541Z,72.54
2019-05-18T08:26:24.546Z,70.03
2019-05-18T08:27:24.525Z,68.91
2019-05-18T08:28:24.517Z,68.13
2019-05-18T08:29:24.513Z,68.04
2019-05-18T08:30:24.507Z,68.52
2019-05-18T08:31:24.582Z,68.62
2019-05-18T08:32:24.494Z,68.84
2019-05-18T08:33:24.505Z,68.46
2019-05-18T08:34:24.481Z,68.98
2019-05-18T08:35:27.082Z,67.72
2019-05-18T08:36:24.465Z,66.43
2019-05-18T08:37:24.461Z,64.89
2019-05-18T08:38:24.455Z,63.40
2019-05-18T08:39:24.446Z,61.66
2019-05-18T08:40:24.439Z,60.59
2019-05-18T08:41:24.435Z,60.72
2019-05-18T08:42:24.430Z,59.88
2019-05-18T08:43:24.432Z,57.68
2019-05-18T08:44:24.434Z,55.44
2019-05-18T08:45:24.422Z,55.87
2019-05-18T08:46:24.415Z,54.24
2019-05-18T08:47:24.411Z,54.85
2019-05-18T08:48:24.409Z,54.07
2019-05-18T08:49:24.404Z,53.13
2019-05-18T08:50:24.402Z,51.93
2019-05-18T08:51:24.401Z,51.89
2019-05-18T08:52:24.393Z,52.08
2019-05-18T08:53:24.396Z,52.20
2019-05-18T08:54:24.388Z,52.37
2019-05-18T08:55:24.394Z,53.47
2019-05-18T08:56:24.386Z,53.17
2019-05-18T08:57:24.385Z,52.83
2019-05-18T08:58:24.381Z,54.84
2019-05-18T08:59:24.378Z,55.93
2019-05-18T09:00:24.373Z,56.25
2019-05-18T09:01:24.369Z,54.72
2019-05-18T09:02:24.370Z,53.30
2019-05-18T09:03:24.369Z,52.54
2019-05-18T09:04:24.360Z,53.99
2019-05-18T09:05:24.359Z,54.38
2019-05-18T09:06:24.357Z,55.38
2019-05-18T09:07:24.359Z,56.18
2019-05-18T09:08:24.350Z,55.14
2019-05-18T09:09:24.344Z,51.84
2019-05-18T09:10:24.345Z,51.65
2019-05-18T09:11:24.346Z,51.91
2019-05-18T09:12:24.337Z,53.08
2019-05-18T09:13:24.334Z,53.39
2019-05-18T09:14:24.339Z,53.45
2019-05-18T09:15:24.327Z,52.96
2019-05-18T09:16:24.335Z,53.01
2019-05-18T09:17:24.382Z,51.45
2019-05-18T09:18:24.342Z,51.09
2019-05-18T09:19:24.316Z,50.43
2019-05-18T09:20:24.309Z,47.63
2019-05-18T09:21:24.306Z,46.69
2019-05-18T09:22:24.306Z,46.30
2019-05-18T09:23:24.302Z,44.64
2019-05-18T09:24:24.299Z,43.76
2019-05-18T09:25:24.299Z,44.05
2019-05-18T09:26:24.290Z,44.15
2019-05-18T09:27:24.286Z,44.24
2019-05-18T09:28:24.289Z,44.93
2019-05-18T09:29:24.308Z,43.47
2019-05-18T09:30:24.276Z,43.08
2019-05-18T09:31:24.273Z,42.69
2019-05-18T09:32:24.317Z,43.08
2019-05-18T09:33:24.295Z,43.08
2019-05-18T09:34:24.261Z,44.07
2019-05-18T09:35:24.577Z,43.71
2019-05-18T09:36:24.257Z,44.12
2019-05-18T09:37:24.249Z,42.94
2019-05-18T09:38:24.245Z,42.65
2019-05-18T09:39:24.243Z,41.89
2019-05-18T09:40:24.242Z,40.60
2019-05-18T09:41:24.236Z,41.99
2019-05-18T09:42:24.230Z,41.21
2019-05-18T09:43:24.228Z,41.62
2019-05-18T09:44:24.223Z,41.13
2019-05-18T09:45:24.218Z,41.02
2019-05-18T09:46:24.218Z,40.72
2019-05-18T09:47:24.218Z,40.63
2019-05-18T09:48:24.233Z,42.69
2019-05-18T09:49:24.541Z,41.91
2019-05-18T09:51:24.196Z,41.33
2019-05-18T09:52:43.551Z,41.13
2019-05-18T09:53:24.187Z,43.30
2019-05-18T09:55:24.202Z,43.87
2019-05-18T09:56:24.719Z,44.45
2019-05-18T09:57:24.380Z,43.48
2019-05-18T09:58:24.172Z,43.36
2019-05-18T09:59:24.160Z,42.99
2019-05-18T10:00:24.154Z,42.60
2019-05-18T10:01:24.149Z,42.71
2019-05-18T10:02:24.148Z,41.35
2019-05-18T10:03:24.140Z,41.27
2019-05-18T10:04:24.142Z,41.46
2019-05-18T10:05:24.131Z,40.88
2019-05-18T10:06:24.130Z,40.76
2019-05-18T10:07:24.119Z,40.76
2019-05-18T10:08:24.111Z,40.95
2019-05-18T10:09:24.202Z,42.13
2019-05-18T10:10:24.107Z,41.72
2019-05-18T10:11:24.195Z,42.30
2019-05-18T10:12:24.812Z,42.19
2019-05-18T10:13:24.724Z,41.99
2019-05-18T10:14:24.419Z,43.33
2019-05-18T10:15:24.397Z,42.83
2019-05-18T10:16:24.785Z,43.32
2019-05-18T10:17:24.098Z,43.00
2019-05-18T10:18:25.471Z,43.88
2019-05-18T10:19:24.401Z,44.46
2019-05-18T10:20:32.411Z,42.51
2019-05-18T10:21:24.077Z,43.41
2019-05-18T10:22:24.100Z,43.78
2019-05-18T10:23:24.071Z,42.83
2019-05-18T10:24:24.266Z,41.95
2019-05-18T10:25:25.762Z,42.79
2019-05-18T10:27:24.338Z,42.70
2019-05-18T10:28:24.337Z,44.82
2019-05-18T10:29:23.988Z,45.97
2019-05-18T10:30:23.984Z,46.42
2019-05-18T10:31:24.296Z,46.50
2019-05-18T10:32:23.973Z,47.74
2019-05-18T10:33:26.115Z,48.22
2019-05-18T10:34:23.964Z,49.17
2019-05-18T10:35:23.949Z,49.49
2019-05-18T10:36:23.946Z,49.82
2019-05-18T10:37:23.929Z,50.12
2019-05-18T10:38:24.247Z,50.84
2019-05-18T10:39:23.913Z,53.04
2019-05-18T10:40:23.916Z,53.33
2019-05-18T10:41:23.899Z,54.39
2019-05-18T10:42:23.889Z,53.85
2019-05-18T10:43:23.889Z,54.23
2019-05-18T10:44:23.881Z,53.67
2019-05-18T10:45:23.866Z,55.22
2019-05-18T10:47:23.855Z,54.58
2019-05-18T10:48:23.840Z,52.71
2019-05-18T10:49:23.838Z,52.32
2019-05-18T10:50:23.830Z,53.00
2019-05-18T10:51:23.818Z,54.28
2019-05-18T10:52:23.817Z,54.19
2019-05-18T10:53:28.841Z,52.95
2019-05-18T10:54:23.801Z,54.50
2019-05-18T10:55:23.801Z,52.88
2019-05-18T10:56:23.779Z,53.10
2019-05-18T10:57:23.772Z,51.06
2019-05-18T10:58:23.769Z,51.45
2019-05-18T10:59:23.754Z,50.77
2019-05-18T11:00:23.756Z,51.67
2019-05-18T11:01:23.739Z,51.38
2019-05-18T11:02:23.735Z,52.09
2019-05-18T11:03:23.725Z,50.14
2019-05-18T11:04:23.713Z,49.85
2019-05-18T11:05:23.708Z,51.11
2019-05-18T11:06:23.706Z,50.14
2019-05-18T11:07:23.696Z,48.58
2019-05-18T11:08:23.687Z,49.24
2019-05-18T11:09:23.676Z,49.05
2019-05-18T11:10:23.670Z,48.66
2019-05-18T11:11:23.666Z,49.27
2019-05-18T11:12:23.660Z,49.56
2019-05-18T11:13:23.644Z,50.16
2019-05-18T11:14:23.639Z,47.42
2019-05-18T11:15:23.647Z,47.81
2019-05-18T11:16:23.626Z,47.40
2019-05-18T11:17:23.628Z,48.49
2019-05-18T11:18:23.612Z,49.00
2019-05-18T11:19:23.603Z,48.34
2019-05-18T11:20:23.598Z,47.27
2019-05-18T11:21:23.652Z,46.32
2019-05-18T11:22:23.643Z,45.45
2019-05-18T11:23:23.594Z,46.03
2019-05-18T11:24:23.571Z,45.74
2019-05-18T11:25:23.558Z,46.03
2019-05-18T11:26:23.556Z,46.13
2019-05-18T11:27:23.556Z,46.13
2019-05-18T11:28:23.540Z,44.86
2019-05-18T11:29:24.266Z,46.03
2019-05-18T11:30:23.523Z,44.96
2019-05-18T11:31:23.517Z,45.14
2019-05-18T11:32:23.514Z,46.08
2019-05-18T11:33:23.525Z,46.35
2019-05-18T11:34:23.496Z,47.03
2019-05-18T11:35:23.491Z,47.13
2019-05-18T11:36:23.501Z,49.19
2019-05-18T11:37:23.495Z,48.51
2019-05-18T11:38:23.497Z,48.22
2019-05-18T11:39:23.466Z,46.15
2019-05-18T11:40:23.463Z,47.03
2019-05-18T11:41:23.451Z,48.10
2019-05-18T11:42:23.444Z,48.78
2019-05-18T11:43:23.434Z,49.85
2019-05-18T11:44:23.424Z,49.29
2019-05-18T11:45:23.420Z,47.52
2019-05-18T11:46:23.413Z,47.61
2019-05-18T11:47:23.410Z,46.55
2019-05-18T11:48:23.396Z,46.55
2019-05-18T11:49:23.398Z,46.74
2019-05-18T11:50:23.382Z,47.42
2019-05-18T11:51:23.387Z,47.47
2019-05-18T11:52:23.370Z,48.25
2019-05-18T11:53:23.369Z,48.66
2019-05-18T11:54:23.353Z,48.95
2019-05-18T11:55:23.348Z,50.34
2019-05-18T11:56:23.337Z,49.27
2019-05-18T11:57:23.339Z,50.34
2019-05-18T11:58:23.342Z,49.87
2019-05-18T11:59:23.320Z,47.64
2019-05-18T12:00:23.317Z,47.56
2019-05-18T12:01:23.303Z,46.30
2019-05-18T12:02:23.296Z,45.72
2019-05-18T12:03:23.289Z,46.20
2019-05-18T12:04:23.289Z,46.50
2019-05-18T12:05:23.274Z,46.59
2019-05-18T12:06:23.271Z,45.98
2019-05-18T12:07:23.272Z,45.98
2019-05-18T12:08:23.255Z,45.98
2019-05-18T12:09:23.275Z,43.16
2019-05-18T12:10:23.240Z,43.15
2019-05-18T12:11:23.241Z,43.05
2019-05-18T12:12:23.223Z,43.24
2019-05-18T12:13:23.226Z,43.90
2019-05-18T12:14:23.217Z,42.93
2019-05-18T12:15:23.221Z,42.74
2019-05-18T12:16:23.197Z,42.64
2019-05-18T12:17:23.193Z,42.76
2019-05-18T12:18:23.181Z,42.85
2019-05-18T12:19:23.187Z,44.41
2019-05-18T12:20:23.168Z,43.05
2019-05-18T12:21:23.159Z,42.43
2019-05-18T12:22:23.158Z,43.49
2019-05-18T12:23:23.151Z,44.51
2019-05-18T12:24:23.136Z,43.16
2019-05-18T12:25:23.141Z,44.42
2019-05-18T12:26:23.128Z,44.61
2019-05-18T12:27:23.120Z,44.44
2019-05-18T12:28:23.106Z,43.98
2019-05-18T12:29:23.101Z,44.07
2019-05-18T12:30:23.096Z,44.97
2019-05-18T12:31:23.094Z,44.31
2019-05-18T12:32:23.081Z,44.21
2019-05-18T12:33:23.078Z,44.33
2019-05-18T12:34:23.064Z,42.78
2019-05-18T12:35:23.054Z,42.19
2019-05-18T12:36:23.048Z,40.95
2019-05-18T12:37:23.045Z,39.49
2019-05-18T12:38:23.030Z,39.10
2019-05-18T12:39:23.024Z,39.20
2019-05-18T12:40:23.024Z,39.59
2019-05-18T12:41:23.010Z,40.68
2019-05-18T12:42:23.008Z,42.80
2019-05-18T12:43:22.996Z,41.20
2019-05-18T12:44:23.011Z,42.15
2019-05-18T12:45:22.989Z,42.61
2019-05-18T12:46:22.982Z,43.40
2019-05-18T12:47:22.969Z,43.98
2019-05-18T12:48:22.962Z,44.48
2019-05-18T12:49:22.951Z,43.63
2019-05-18T12:50:22.945Z,42.78
2019-05-18T12:51:22.938Z,43.65
2019-05-18T12:52:22.932Z,44.35
2019-05-18T12:53:22.925Z,42.82
2019-05-18T12:54:31.010Z,43.91
2019-05-18T12:55:22.919Z,42.94
2019-05-18T12:56:22.968Z,42.84